Time;durP1;ratioP1;P1;durP2;ratioP2;P2;SDS_P1;SDS_P2;PMS_P1;PMS_P2;Temp;Humidity;BMP_temperature;BMP_pressure;BME280_temperature;BME280_humidity;BME280_pressure;Samples;Min_cycle;Max_cycle;Signal;HPM_P1;HPM_P2
2023/06/16 00:05:12;;;;;;;3.25;2.20;;;18.40;1.00;;;;;;20646332;28;20220;-43
2023/06/16 00:15:33;;;;;;;4.43;2.10;;;18.20;1.00;;;;;;20649918;28;20081;-43
2023/06/16 00:25:56;;;;;;;5.43;2.70;;;18.00;1.00;;;;;;20651756;28;20026;-43
2023/06/16 00:36:17;;;;;;;4.57;2.30;;;17.90;1.00;;;;;;20659912;28;20050;-43
2023/06/16 00:46:39;;;;;;;4.57;2.65;;;17.70;1.00;;;;;;20679124;28;20041;-43
2023/06/16 00:57:00;;;;;;;3.20;2.20;;;17.60;1.00;;;;;;20664453;28;20525;-43
2023/06/16 01:07:33;;;;;;;4.35;2.60;;;17.50;1.00;;;;;;20659771;28;20041;-43
2023/06/16 01:17:59;;;;;;;3.08;1.98;;;17.30;1.00;;;;;;20661701;28;20076;-43
2023/06/16 01:28:23;;;;;;;3.90;2.38;;;17.30;1.00;;;;;;20660498;28;20489;-43
2023/06/16 01:38:45;;;;;;;3.95;2.63;;;17.10;1.00;;;;;;20665698;28;20046;-43
2023/06/16 01:49:08;;;;;;;5.47;2.65;;;17.00;1.00;;;;;;20663549;28;20044;-43
2023/06/16 01:59:29;;;;;;;5.65;2.80;;;16.90;1.00;;;;;;20659136;28;20038;-43
2023/06/16 02:09:51;;;;;;;4.63;2.55;;;16.90;1.00;;;;;;20658687;28;20052;-43
2023/06/16 02:20:13;;;;;;;4.47;2.83;;;16.80;1.00;;;;;;20658413;28;20038;-43
2023/06/16 02:30:34;;;;;;;7.82;2.80;;;16.70;1.00;;;;;;20657512;28;20397;-43
2023/06/16 02:40:56;;;;;;;4.43;2.50;;;16.70;1.00;;;;;;20655655;28;20057;-43
2023/06/16 02:51:17;;;;;;;7.57;2.75;;;16.60;1.00;;;;;;20660360;28;20088;-43
2023/06/16 03:01:38;;;;;;;8.65;3.05;;;16.50;1.00;;;;;;20658351;28;20108;-43
2023/06/16 03:12:00;;;;;;;5.43;2.83;;;16.40;1.00;;;;;;20657507;28;20038;-43
2023/06/16 03:22:21;;;;;;;5.47;3.15;;;16.30;1.00;;;;;;20652951;28;20046;-43
2023/06/16 03:32:44;;;;;;;7.05;3.40;;;16.10;1.00;;;;;;20651411;28;20049;-46
2023/06/16 03:43:05;;;;;;;3.75;2.67;;;16.00;1.00;;;;;;20655775;28;21025;-45
2023/06/16 03:53:28;;;;;;;4.75;2.63;;;16.00;1.00;;;;;;20655880;28;20876;-45
2023/06/16 04:03:50;;;;;;;5.13;3.22;;;16.00;1.00;;;;;;20655377;28;20053;-45
2023/06/16 04:14:11;;;;;;;8.35;3.58;;;15.90;1.00;;;;;;20653676;28;20037;-45
2023/06/16 04:24:33;;;;;;;4.40;2.85;;;15.80;1.00;;;;;;20652533;28;20037;-46
2023/06/16 04:34:57;;;;;;;5.35;3.05;;;15.80;1.00;;;;;;20656641;28;20047;-46
2023/06/16 04:45:19;;;;;;;5.20;2.97;;;15.90;1.00;;;;;;20648515;28;20070;-43
2023/06/16 04:55:41;;;;;;;5.15;3.58;;;16.00;1.00;;;;;;20652350;28;20042;-43
2023/06/16 05:06:02;;;;;;;5.90;4.05;;;16.30;1.00;;;;;;20645438;28;20065;-43
2023/06/16 05:16:24;;;;;;;6.38;3.25;;;16.50;1.00;;;;;;20649838;28;20801;-43
2023/06/16 05:26:45;;;;;;;6.80;3.28;;;16.90;1.00;;;;;;20664367;28;20781;-42
2023/06/16 05:37:06;;;;;;;5.43;3.20;;;17.40;1.00;;;;;;20666704;28;20054;-42
2023/06/16 05:47:28;;;;;;;5.32;3.10;;;17.80;1.00;;;;;;20657585;28;20405;-42
2023/06/16 05:57:49;;;;;;;6.05;2.67;;;18.10;1.00;;;;;;20674616;28;20044;-42
2023/06/16 06:08:11;;;;;;;4.82;3.20;;;18.30;1.00;;;;;;20655566;28;20038;-42
2023/06/16 06:18:32;;;;;;;4.65;3.20;;;18.70;1.00;;;;;;20652050;28;20528;-43
2023/06/16 06:28:53;;;;;;;3.88;2.53;;;19.10;1.00;;;;;;20666289;28;20089;-42
2023/06/16 06:39:18;;;;;;;5.72;2.67;;;19.50;1.00;;;;;;20659006;28;20545;-42
2023/06/16 06:49:41;;;;;;;4.75;1.88;;;19.90;1.00;;;;;;20668457;28;20366;-42
2023/06/16 07:00:03;;;;;;;5.88;2.65;;;20.20;1.00;;;;;;20677343;28;20049;-43
2023/06/16 07:10:24;;;;;;;4.32;2.50;;;20.50;1.00;;;;;;20680446;28;20049;-43
2023/06/16 07:20:45;;;;;;;4.60;2.10;;;20.60;1.00;;;;;;20660283;28;20042;-42
2023/06/16 07:31:07;;;;;;;2.95;2.05;;;20.70;1.00;;;;;;20671619;28;20038;-43
2023/06/16 07:41:28;;;;;;;4.25;2.50;;;21.10;1.00;;;;;;20668528;28;20041;-42
2023/06/16 07:51:50;;;;;;;4.47;1.98;;;21.20;1.00;;;;;;20647689;28;20437;-42
2023/06/16 08:02:12;;;;;;;3.60;2.00;;;21.10;1.00;;;;;;20664797;28;20053;-43
2023/06/16 08:12:33;;;;;;;3.15;2.15;;;21.20;1.00;;;;;;20664292;28;20034;-43
2023/06/16 08:22:55;;;;;;;3.85;2.00;;;21.40;1.00;;;;;;20663414;28;20258;-43
2023/06/16 08:33:16;;;;;;;5.28;2.17;;;21.70;1.00;;;;;;20664735;28;20679;-43
2023/06/16 08:43:37;;;;;;;3.00;2.22;;;22.00;1.00;;;;;;20662194;28;20131;-43
2023/06/16 08:54:02;;;;;;;4.88;2.03;;;22.20;1.00;;;;;;20667455;28;20121;-43
2023/06/16 09:04:24;;;;;;;3.85;2.10;;;22.30;1.00;;;;;;20646402;28;20172;-43
2023/06/16 09:14:49;;;;;;;4.45;2.00;;;22.80;1.00;;;;;;20679166;28;20494;-43
2023/06/16 09:25:14;;;;;;;3.13;2.10;;;23.10;1.00;;;;;;20677083;28;20111;-43
2023/06/16 09:35:39;;;;;;;3.75;2.20;;;23.50;1.00;;;;;;20673025;28;20058;-43
2023/06/16 09:46:00;;;;;;;3.13;2.08;;;23.80;1.00;;;;;;20675104;28;20046;-43
2023/06/16 09:56:22;;;;;;;3.50;2.03;;;24.10;1.00;;;;;;20667641;28;20375;-43
2023/06/16 10:06:51;;;;;;;3.55;2.22;;;24.40;1.00;;;;;;20661608;28;20053;-43
2023/06/16 10:17:15;;;;;;;3.65;2.10;;;24.80;1.00;;;;;;20643642;28;20072;-43
2023/06/16 10:27:39;;;;;;;3.35;1.95;;;25.00;1.00;;;;;;20670495;28;20453;-43
2023/06/16 10:38:01;;;;;;;5.35;2.13;;;25.00;1.00;;;;;;20662754;28;20062;-43
2023/06/16 10:48:22;;;;;;;4.97;2.15;;;25.20;1.00;;;;;;20668504;28;20292;-43
2023/06/16 10:58:52;;;;;;;5.10;2.20;;;25.40;1.00;;;;;;20639900;28;20038;-43
2023/06/16 11:09:13;;;;;;;5.03;2.05;;;25.60;1.00;;;;;;20666218;28;20405;-44
2023/06/16 11:19:37;;;;;;;3.50;1.83;;;25.60;1.00;;;;;;20664117;28;20042;-43
2023/06/16 11:30:01;;;;;;;5.47;2.28;;;25.60;1.00;;;;;;20654857;28;20442;-43
2023/06/16 11:40:25;;;;;;;6.63;2.25;;;26.00;1.00;;;;;;20650716;28;20065;-43
2023/06/16 11:50:47;;;;;;;2.85;2.10;;;25.90;1.00;;;;;;20657936;28;20041;-43
2023/06/16 12:01:12;;;;;;;3.13;2.38;;;26.20;1.00;;;;;;20664880;28;20046;-43
2023/06/16 12:11:35;;;;;;;5.18;2.00;;;26.00;1.00;;;;;;20650253;28;20418;-43
2023/06/16 12:22:03;;;;;;;6.05;2.22;;;26.00;1.00;;;;;;20652701;28;20566;-44
2023/06/16 12:32:32;;;;;;;3.17;2.05;;;26.80;1.00;;;;;;20667626;28;20038;-43
2023/06/16 12:42:53;;;;;;;4.00;2.33;;;26.70;1.00;;;;;;20672502;28;20061;-43
2023/06/16 12:53:15;;;;;;;3.85;1.98;;;26.50;1.00;;;;;;20646771;28;20049;-43
2023/06/16 13:03:36;;;;;;;3.28;2.28;;;27.00;1.00;;;;;;20655623;28;20042;-43
2023/06/16 13:13:58;;;;;;;3.33;2.00;;;27.20;1.00;;;;;;20651555;28;20042;-43
2023/06/16 13:24:19;;;;;;;3.25;2.33;;;27.40;1.00;;;;;;20647789;28;20058;-43
2023/06/16 13:34:40;;;;;;;4.28;2.60;;;27.40;1.00;;;;;;20672042;28;20047;-43
2023/06/16 13:45:02;;;;;;;4.97;2.50;;;27.30;1.00;;;;;;20661902;28;20683;-43
2023/06/16 13:55:23;;;;;;;3.78;2.53;;;26.80;1.00;;;;;;20666867;28;20314;-43
2023/06/16 14:05:44;;;;;;;5.28;2.47;;;26.50;1.00;;;;;;20674595;28;20046;-43
2023/06/16 14:16:05;;;;;;;4.13;2.13;;;26.30;1.00;;;;;;20675638;28;20042;-44
2023/06/16 14:26:27;;;;;;;3.67;2.25;;;26.30;1.00;;;;;;20676207;28;20041;-43
2023/06/16 14:36:48;;;;;;;3.80;2.30;;;26.00;1.00;;;;;;20672986;28;20061;-43
2023/06/16 14:47:11;;;;;;;3.15;1.88;;;26.20;1.00;;;;;;20673236;28;20042;-43
2023/06/16 14:57:32;;;;;;;2.55;1.83;;;26.00;1.00;;;;;;20676930;28;20038;-43
2023/06/16 15:07:53;;;;;;;2.67;1.58;;;25.80;1.00;;;;;;20673586;28;20514;-44
2023/06/16 15:18:15;;;;;;;3.25;1.95;;;25.80;1.00;;;;;;20672869;28;20041;-43
2023/06/16 15:28:36;;;;;;;4.22;2.20;;;25.80;1.00;;;;;;20672591;28;20124;-43
2023/06/16 15:38:57;;;;;;;5.32;2.17;;;25.80;1.00;;;;;;20672862;28;20054;-43
2023/06/16 15:49:19;;;;;;;2.47;1.70;;;25.60;1.00;;;;;;20679030;28;20040;-43
2023/06/16 15:59:40;;;;;;;3.92;2.30;;;25.50;1.00;;;;;;20672192;28;20042;-43
2023/06/16 16:10:02;;;;;;;5.55;2.17;;;25.40;1.00;;;;;;20652629;28;20494;-43
2023/06/16 16:20:23;;;;;;;3.30;2.20;;;25.20;1.00;;;;;;20660623;28;20065;-43
2023/06/16 16:30:45;;;;;;;4.38;1.92;;;25.00;1.00;;;;;;20665625;28;20038;-43
2023/06/16 16:41:06;;;;;;;3.35;1.88;;;25.00;1.00;;;;;;20659610;28;20049;-44
2023/06/16 16:51:28;;;;;;;3.47;1.83;;;24.90;1.00;;;;;;20645259;28;20473;-43
2023/06/16 17:01:49;;;;;;;2.55;1.50;;;24.60;1.00;;;;;;20647864;28;20068;-44
2023/06/16 17:12:11;;;;;;;2.42;1.70;;;24.50;1.00;;;;;;20651557;28;20581;-43
2023/06/16 17:22:32;;;;;;;3.50;2.00;;;24.40;1.00;;;;;;20672313;28;20050;-43
2023/06/16 17:32:54;;;;;;;2.97;1.65;;;24.30;1.00;;;;;;20671675;28;20041;-44
2023/06/16 17:43:16;;;;;;;4.00;1.63;;;23.90;1.00;;;;;;20669717;28;20054;-44
2023/06/16 17:53:37;;;;;;;6.65;2.05;;;23.80;1.00;;;;;;20656558;28;20478;-43
2023/06/16 18:03:58;;;;;;;2.80;1.67;;;23.80;1.00;;;;;;20669326;28;20061;-43
2023/06/16 18:14:20;;;;;;;3.15;1.77;;;23.70;1.00;;;;;;20656876;28;20464;-43
2023/06/16 18:24:41;;;;;;;2.53;1.35;;;23.50;1.00;;;;;;20686484;28;20072;-44
2023/06/16 18:35:04;;;;;;;4.43;1.65;;;23.30;1.00;;;;;;20668808;28;20038;-43
2023/06/16 18:45:25;;;;;;;3.60;1.70;;;23.20;1.00;;;;;;20678468;28;20042;-43
2023/06/16 18:55:49;;;;;;;3.22;1.60;;;22.90;1.00;;;;;;20660457;28;20038;-44
2023/06/16 19:06:11;;;;;;;4.75;1.50;;;22.70;1.00;;;;;;20649229;28;20533;-43
2023/06/16 19:16:32;;;;;;;3.65;1.48;;;22.50;1.00;;;;;;20679922;28;20056;-44
2023/06/16 19:26:53;;;;;;;2.42;1.50;;;22.30;1.00;;;;;;20643224;28;20406;-44
2023/06/16 19:37:15;;;;;;;2.97;1.35;;;22.20;1.00;;;;;;20675396;28;20058;-43
2023/06/16 19:47:37;;;;;;;1.73;1.20;;;21.90;1.00;;;;;;20659681;28;20494;-44
2023/06/16 19:57:58;;;;;;;2.47;1.25;;;21.70;1.00;;;;;;20674638;28;20073;-43
2023/06/16 20:08:20;;;;;;;3.75;1.40;;;21.40;1.00;;;;;;20651446;28;20041;-43
2023/06/16 20:18:41;;;;;;;2.45;1.50;;;21.10;1.00;;;;;;20674028;28;20046;-43
2023/06/16 20:29:03;;;;;;;3.63;1.25;;;20.90;1.00;;;;;;20657050;28;20715;-43
2023/06/16 20:39:25;;;;;;;2.13;1.17;;;20.60;1.00;;;;;;20646861;28;20085;-43
2023/06/16 20:49:50;;;;;;;2.72;1.70;;;20.30;1.00;;;;;;20650988;28;21537;-43
2023/06/16 21:00:12;;;;;;;2.90;1.70;;;20.10;1.00;;;;;;20657430;28;20088;-43
2023/06/16 21:10:35;;;;;;;2.28;1.38;;;19.90;1.00;;;;;;20658329;28;20057;-43
2023/06/16 21:20:57;;;;;;;4.20;1.48;;;19.70;1.00;;;;;;20656997;28;20073;-43
2023/06/16 21:31:19;;;;;;;3.45;1.70;;;19.50;1.00;;;;;;20672415;28;20498;-43
2023/06/16 21:41:40;;;;;;;2.60;1.50;;;19.30;1.00;;;;;;20666918;28;22327;-43
2023/06/16 21:52:01;;;;;;;3.42;1.83;;;19.00;1.00;;;;;;20665727;28;20048;-43
2023/06/16 22:02:23;;;;;;;4.90;1.70;;;18.80;1.00;;;;;;20662081;28;20038;-43
2023/06/16 22:12:46;;;;;;;4.97;1.60;;;18.50;1.00;;;;;;20664848;28;20665;-43
2023/06/16 22:23:07;;;;;;;4.28;2.42;;;18.20;1.00;;;;;;20657212;28;20048;-43
2023/06/16 22:33:35;;;;;;;3.42;2.15;;;18.00;1.00;;;;;;20654908;28;20045;-43
2023/06/16 22:43:58;;;;;;;3.77;2.10;;;17.80;1.00;;;;;;20653994;28;20750;-43
2023/06/16 22:54:20;;;;;;;6.20;2.13;;;17.70;1.00;;;;;;20650060;28;20048;-43
2023/06/16 23:04:41;;;;;;;3.70;2.10;;;17.50;1.00;;;;;;20652080;28;20068;-43
2023/06/16 23:15:03;;;;;;;4.43;2.20;;;17.30;1.00;;;;;;20654724;28;20049;-43
2023/06/16 23:25:25;;;;;;;4.07;2.20;;;17.00;1.00;;;;;;20659049;28;20056;-43
2023/06/16 23:35:49;;;;;;;4.22;2.38;;;16.80;1.00;;;;;;20650922;28;20187;-43
2023/06/16 23:46:10;;;;;;;5.03;2.25;;;16.70;1.00;;;;;;20646849;28;20057;-43
2023/06/16 23:56:32;;;;;;;4.28;2.25;;;16.60;1.00;;;;;;20647857;28;20246;-43
